sensor_id;sensor_type;location;lat;lon;timestamp;temperature;humidity
12632;DHT22;6381;45.748;12.106;2023-03-23T00:01:23;13.20;91.80
12632;DHT22;6381;45.748;12.106;2023-03-23T00:03:54;13.10;92.40
12632;DHT22;6381;45.748;12.106;2023-03-23T00:24:03;13.00;92.70
12632;DHT22;6381;45.748;12.106;2023-03-23T00:26:34;13.00;93.90
12632;DHT22;6381;45.748;12.106;2023-03-23T00:29:05;13.10;93.80
12632;DHT22;6381;45.748;12.106;2023-03-23T00:31:35;13.10;93.80
12632;DHT22;6381;45.748;12.106;2023-03-23T00:34:05;13.10;93.80
12632;DHT22;6381;45.748;12.106;2023-03-23T00:36:35;13.00;93.80
12632;DHT22;6381;45.748;12.106;2023-03-23T00:39:12;13.20;93.80
12632;DHT22;6381;45.748;12.106;2023-03-23T00:41:43;13.10;93.40
12632;DHT22;6381;45.748;12.106;2023-03-23T00:44:14;13.30;93.50
12632;DHT22;6381;45.748;12.106;2023-03-23T00:46:44;13.40;93.50
12632;DHT22;6381;45.748;12.106;2023-03-23T00:49:13;13.20;93.00
12632;DHT22;6381;45.748;12.106;2023-03-23T00:51:43;13.10;93.30
12632;DHT22;6381;45.748;12.106;2023-03-23T00:54:12;12.90;93.90
12632;DHT22;6381;45.748;12.106;2023-03-23T00:56:41;12.90;94.20
12632;DHT22;6381;45.748;12.106;2023-03-23T00:59:09;12.80;94.30
12632;DHT22;6381;45.748;12.106;2023-03-23T01:01:39;12.80;94.50
12632;DHT22;6381;45.748;12.106;2023-03-23T01:04:08;12.70;94.60
12632;DHT22;6381;45.748;12.106;2023-03-23T01:06:40;12.70;95.10
12632;DHT22;6381;45.748;12.106;2023-03-23T01:09:12;12.60;95.10
12632;DHT22;6381;45.748;12.106;2023-03-23T01:11:41;12.50;95.10
12632;DHT22;6381;45.748;12.106;2023-03-23T01:14:13;12.50;95.20
12632;DHT22;6381;45.748;12.106;2023-03-23T01:16:44;12.60;95.20
12632;DHT22;6381;45.748;12.106;2023-03-23T01:19:13;12.50;95.00
12632;DHT22;6381;45.748;12.106;2023-03-23T01:21:44;12.40;95.20
12632;DHT22;6381;45.748;12.106;2023-03-23T01:24:12;12.30;95.30
12632;DHT22;6381;45.748;12.106;2023-03-23T01:26:41;12.40;95.60
12632;DHT22;6381;45.748;12.106;2023-03-23T01:29:10;12.40;95.80
12632;DHT22;6381;45.748;12.106;2023-03-23T01:31:38;12.60;95.60
12632;DHT22;6381;45.748;12.106;2023-03-23T01:34:14;12.60;95.30
12632;DHT22;6381;45.748;12.106;2023-03-23T01:36:42;12.90;94.70
12632;DHT22;6381;45.748;12.106;2023-03-23T01:39:11;13.10;94.50
12632;DHT22;6381;45.748;12.106;2023-03-23T01:41:40;13.00;94.30
12632;DHT22;6381;45.748;12.106;2023-03-23T01:47:16;12.70;94.40
12632;DHT22;6381;45.748;12.106;2023-03-23T01:49:47;12.40;94.50
12632;DHT22;6381;45.748;12.106;2023-03-23T01:52:19;12.60;94.40
12632;DHT22;6381;45.748;12.106;2023-03-23T01:54:53;12.50;94.20
12632;DHT22;6381;45.748;12.106;2023-03-23T01:57:24;12.60;93.60
12632;DHT22;6381;45.748;12.106;2023-03-23T02:00:03;12.70;93.50
12632;DHT22;6381;45.748;12.106;2023-03-23T02:02:51;12.70;93.30
12632;DHT22;6381;45.748;12.106;2023-03-23T02:05:28;12.70;93.40
12632;DHT22;6381;45.748;12.106;2023-03-23T02:08:04;12.70;93.50
12632;DHT22;6381;45.748;12.106;2023-03-23T02:10:36;12.50;94.00
12632;DHT22;6381;45.748;12.106;2023-03-23T02:13:07;12.40;94.50
12632;DHT22;6381;45.748;12.106;2023-03-23T02:15:45;12.40;94.30
12632;DHT22;6381;45.748;12.106;2023-03-23T02:18:35;12.50;94.40
12632;DHT22;6381;45.748;12.106;2023-03-23T02:27:34;12.60;94.60
12632;DHT22;6381;45.748;12.106;2023-03-23T02:30:27;12.50;94.80
12632;DHT22;6381;45.748;12.106;2023-03-23T02:33:23;12.60;94.80
12632;DHT22;6381;45.748;12.106;2023-03-23T02:35:59;12.10;95.40
12632;DHT22;6381;45.748;12.106;2023-03-23T02:38:32;12.00;96.50
12632;DHT22;6381;45.748;12.106;2023-03-23T02:41:03;11.90;96.60
12632;DHT22;6381;45.748;12.106;2023-03-23T02:43:37;12.10;96.50
12632;DHT22;6381;45.748;12.106;2023-03-23T02:46:10;12.00;95.70
12632;DHT22;6381;45.748;12.106;2023-03-23T02:48:41;12.00;96.20
12632;DHT22;6381;45.748;12.106;2023-03-23T02:51:12;12.10;95.70
12632;DHT22;6381;45.748;12.106;2023-03-23T02:53:43;12.20;95.70
12632;DHT22;6381;45.748;12.106;2023-03-23T02:56:13;12.00;96.00
12632;DHT22;6381;45.748;12.106;2023-03-23T02:58:43;12.10;95.90
12632;DHT22;6381;45.748;12.106;2023-03-23T03:04:05;12.30;95.10
12632;DHT22;6381;45.748;12.106;2023-03-23T03:06:40;12.40;95.00
12632;DHT22;6381;45.748;12.106;2023-03-23T03:09:16;12.20;95.30
12632;DHT22;6381;45.748;12.106;2023-03-23T03:11:49;12.30;95.50
12632;DHT22;6381;45.748;12.106;2023-03-23T03:14:23;12.30;95.40
12632;DHT22;6381;45.748;12.106;2023-03-23T03:16:56;12.20;95.30
12632;DHT22;6381;45.748;12.106;2023-03-23T03:19:32;12.10;95.80
12632;DHT22;6381;45.748;12.106;2023-03-23T03:22:03;12.10;96.10
12632;DHT22;6381;45.748;12.106;2023-03-23T03:24:40;12.00;96.40
12632;DHT22;6381;45.748;12.106;2023-03-23T03:27:14;12.10;96.30
12632;DHT22;6381;45.748;12.106;2023-03-23T03:29:51;12.00;96.10
12632;DHT22;6381;45.748;12.106;2023-03-23T03:32:24;12.00;96.10
12632;DHT22;6381;45.748;12.106;2023-03-23T03:34:56;11.90;96.20
12632;DHT22;6381;45.748;12.106;2023-03-23T03:37:27;11.90;96.40
12632;DHT22;6381;45.748;12.106;2023-03-23T03:40:00;12.00;96.20
12632;DHT22;6381;45.748;12.106;2023-03-23T03:42:30;12.10;96.20
12632;DHT22;6381;45.748;12.106;2023-03-23T03:44:59;12.10;96.20
12632;DHT22;6381;45.748;12.106;2023-03-23T03:47:28;12.10;96.10
12632;DHT22;6381;45.748;12.106;2023-03-23T03:49:59;12.00;96.40
12632;DHT22;6381;45.748;12.106;2023-03-23T03:52:29;12.10;96.30
12632;DHT22;6381;45.748;12.106;2023-03-23T03:54:59;12.10;96.40
12632;DHT22;6381;45.748;12.106;2023-03-23T03:57:30;12.00;96.60
12632;DHT22;6381;45.748;12.106;2023-03-23T04:00:32;12.00;96.60
12632;DHT22;6381;45.748;12.106;2023-03-23T04:03:00;12.00;96.70
12632;DHT22;6381;45.748;12.106;2023-03-23T04:05:45;12.00;96.80
12632;DHT22;6381;45.748;12.106;2023-03-23T04:08:14;12.00;96.50
12632;DHT22;6381;45.748;12.106;2023-03-23T04:10:43;12.20;96.30
12632;DHT22;6381;45.748;12.106;2023-03-23T04:13:13;12.20;96.60
12632;DHT22;6381;45.748;12.106;2023-03-23T04:16:01;12.00;97.00
12632;DHT22;6381;45.748;12.106;2023-03-23T04:18:32;12.00;97.00
12632;DHT22;6381;45.748;12.106;2023-03-23T04:21:04;12.10;97.20
12632;DHT22;6381;45.748;12.106;2023-03-23T04:23:35;12.00;97.30
12632;DHT22;6381;45.748;12.106;2023-03-23T04:26:07;12.10;97.60
12632;DHT22;6381;45.748;12.106;2023-03-23T04:28:47;11.90;97.90
12632;DHT22;6381;45.748;12.106;2023-03-23T04:31:49;12.10;98.00
12632;DHT22;6381;45.748;12.106;2023-03-23T04:34:29;12.00;98.10
12632;DHT22;6381;45.748;12.106;2023-03-23T04:37:02;12.10;98.30
12632;DHT22;6381;45.748;12.106;2023-03-23T04:39:32;12.00;98.60
12632;DHT22;6381;45.748;12.106;2023-03-23T04:42:04;12.00;98.60
12632;DHT22;6381;45.748;12.106;2023-03-23T04:45:01;12.00;99.00
12632;DHT22;6381;45.748;12.106;2023-03-23T04:47:37;11.90;99.10
12632;DHT22;6381;45.748;12.106;2023-03-23T04:50:18;12.10;99.00
12632;DHT22;6381;45.748;12.106;2023-03-23T04:52:48;11.90;99.40
12632;DHT22;6381;45.748;12.106;2023-03-23T04:55:19;12.00;99.50
12632;DHT22;6381;45.748;12.106;2023-03-23T04:57:54;12.00;99.50
12632;DHT22;6381;45.748;12.106;2023-03-23T05:00:35;12.00;99.60
12632;DHT22;6381;45.748;12.106;2023-03-23T05:03:04;12.00;99.90
12632;DHT22;6381;45.748;12.106;2023-03-23T05:05:34;12.20;99.40
12632;DHT22;6381;45.748;12.106;2023-03-23T05:08:08;12.20;99.50
12632;DHT22;6381;45.748;12.106;2023-03-23T05:10:40;12.10;99.60
12632;DHT22;6381;45.748;12.106;2023-03-23T05:13:13;12.20;99.70
12632;DHT22;6381;45.748;12.106;2023-03-23T05:15:43;12.10;99.50
12632;DHT22;6381;45.748;12.106;2023-03-23T05:18:11;12.10;99.80
12632;DHT22;6381;45.748;12.106;2023-03-23T05:20:46;12.10;99.80
12632;DHT22;6381;45.748;12.106;2023-03-23T05:23:22;12.30;99.60
12632;DHT22;6381;45.748;12.106;2023-03-23T05:25:59;12.20;99.70
12632;DHT22;6381;45.748;12.106;2023-03-23T05:28:30;12.30;99.70
12632;DHT22;6381;45.748;12.106;2023-03-23T05:31:09;12.30;99.50
12632;DHT22;6381;45.748;12.106;2023-03-23T05:33:38;12.20;99.60
12632;DHT22;6381;45.748;12.106;2023-03-23T05:36:21;12.20;99.50
12632;DHT22;6381;45.748;12.106;2023-03-23T05:39:25;12.30;99.60
12632;DHT22;6381;45.748;12.106;2023-03-23T05:42:09;12.20;99.60
12632;DHT22;6381;45.748;12.106;2023-03-23T05:44:48;12.20;99.80
12632;DHT22;6381;45.748;12.106;2023-03-23T05:47:17;12.30;99.60
12632;DHT22;6381;45.748;12.106;2023-03-23T05:49:52;12.20;99.70
12632;DHT22;6381;45.748;12.106;2023-03-23T05:52:23;12.10;99.90
12632;DHT22;6381;45.748;12.106;2023-03-23T05:54:55;12.10;99.90
12632;DHT22;6381;45.748;12.106;2023-03-23T05:57:24;12.40;99.90
12632;DHT22;6381;45.748;12.106;2023-03-23T06:00:04;12.40;99.70
12632;DHT22;6381;45.748;12.106;2023-03-23T06:02:42;12.60;99.30
12632;DHT22;6381;45.748;12.106;2023-03-23T06:05:18;12.60;99.20
12632;DHT22;6381;45.748;12.106;2023-03-23T06:07:54;12.60;99.20
12632;DHT22;6381;45.748;12.106;2023-03-23T06:10:25;12.60;99.20
12632;DHT22;6381;45.748;12.106;2023-03-23T06:12:59;12.70;99.00
12632;DHT22;6381;45.748;12.106;2023-03-23T06:15:33;12.80;98.90
12632;DHT22;6381;45.748;12.106;2023-03-23T06:18:07;12.80;98.90
12632;DHT22;6381;45.748;12.106;2023-03-23T06:20:54;13.00;98.70
12632;DHT22;6381;45.748;12.106;2023-03-23T06:23:40;13.00;98.60
12632;DHT22;6381;45.748;12.106;2023-03-23T06:26:12;12.90;98.80
12632;DHT22;6381;45.748;12.106;2023-03-23T06:28:45;13.00;98.90
12632;DHT22;6381;45.748;12.106;2023-03-23T06:31:14;13.20;98.70
12632;DHT22;6381;45.748;12.106;2023-03-23T06:33:44;13.20;98.70
12632;DHT22;6381;45.748;12.106;2023-03-23T06:36:36;13.30;98.60
12632;DHT22;6381;45.748;12.106;2023-03-23T06:39:11;13.40;98.60
12632;DHT22;6381;45.748;12.106;2023-03-23T06:41:56;13.50;98.50
12632;DHT22;6381;45.748;12.106;2023-03-23T06:44:29;13.60;98.30
12632;DHT22;6381;45.748;12.106;2023-03-23T06:46:58;13.60;98.10
12632;DHT22;6381;45.748;12.106;2023-03-23T06:49:34;13.50;98.20
12632;DHT22;6381;45.748;12.106;2023-03-23T06:52:14;13.60;98.30
12632;DHT22;6381;45.748;12.106;2023-03-23T06:54:43;13.70;98.10
12632;DHT22;6381;45.748;12.106;2023-03-23T06:57:15;13.80;97.90
12632;DHT22;6381;45.748;12.106;2023-03-23T06:59:45;13.80;97.80
12632;DHT22;6381;45.748;12.106;2023-03-23T07:02:15;13.90;97.80
12632;DHT22;6381;45.748;12.106;2023-03-23T07:04:47;13.90;97.90
12632;DHT22;6381;45.748;12.106;2023-03-23T07:07:20;14.10;97.70
12632;DHT22;6381;45.748;12.106;2023-03-23T07:09:54;14.00;97.60
12632;DHT22;6381;45.748;12.106;2023-03-23T07:12:26;14.00;97.60
12632;DHT22;6381;45.748;12.106;2023-03-23T07:14:56;14.20;97.60
12632;DHT22;6381;45.748;12.106;2023-03-23T07:17:25;14.20;97.60
12632;DHT22;6381;45.748;12.106;2023-03-23T07:20:11;14.30;97.20
12632;DHT22;6381;45.748;12.106;2023-03-23T07:22:41;14.40;97.60
12632;DHT22;6381;45.748;12.106;2023-03-23T07:25:21;14.40;97.70
12632;DHT22;6381;45.748;12.106;2023-03-23T07:27:54;14.60;97.00
12632;DHT22;6381;45.748;12.106;2023-03-23T07:30:23;14.70;96.60
12632;DHT22;6381;45.748;12.106;2023-03-23T07:32:52;14.70;96.80
12632;DHT22;6381;45.748;12.106;2023-03-23T07:35:21;14.60;96.60
12632;DHT22;6381;45.748;12.106;2023-03-23T07:38:04;14.60;96.50
12632;DHT22;6381;45.748;12.106;2023-03-23T07:40:35;14.70;96.20
12632;DHT22;6381;45.748;12.106;2023-03-23T07:43:23;14.70;96.10
12632;DHT22;6381;45.748;12.106;2023-03-23T07:45:52;14.80;95.80
12632;DHT22;6381;45.748;12.106;2023-03-23T07:48:24;14.90;95.50
12632;DHT22;6381;45.748;12.106;2023-03-23T07:50:53;14.80;95.30
12632;DHT22;6381;45.748;12.106;2023-03-23T07:53:22;14.90;95.00
12632;DHT22;6381;45.748;12.106;2023-03-23T07:55:58;14.80;95.20
12632;DHT22;6381;45.748;12.106;2023-03-23T07:59:04;14.90;94.90
12632;DHT22;6381;45.748;12.106;2023-03-23T08:01:34;15.20;94.70
12632;DHT22;6381;45.748;12.106;2023-03-23T08:04:21;15.40;94.50
12632;DHT22;6381;45.748;12.106;2023-03-23T08:07:25;15.50;94.10
12632;DHT22;6381;45.748;12.106;2023-03-23T08:10:13;15.60;93.90
12632;DHT22;6381;45.748;12.106;2023-03-23T08:13:06;15.80;94.30
12632;DHT22;6381;45.748;12.106;2023-03-23T08:15:56;15.90;94.20
12632;DHT22;6381;45.748;12.106;2023-03-23T08:18:51;16.00;93.70
12632;DHT22;6381;45.748;12.106;2023-03-23T08:21:43;16.40;93.10
12632;DHT22;6381;45.748;12.106;2023-03-23T08:24:35;16.30;92.80
12632;DHT22;6381;45.748;12.106;2023-03-23T08:27:15;16.20;92.40
12632;DHT22;6381;45.748;12.106;2023-03-23T08:30:07;16.20;92.50
12632;DHT22;6381;45.748;12.106;2023-03-23T08:33:17;16.00;93.00
12632;DHT22;6381;45.748;12.106;2023-03-23T08:36:09;15.90;93.00
12632;DHT22;6381;45.748;12.106;2023-03-23T08:38:57;15.60;93.60
12632;DHT22;6381;45.748;12.106;2023-03-23T08:41:45;15.50;93.80
12632;DHT22;6381;45.748;12.106;2023-03-23T08:44:32;15.50;93.50
12632;DHT22;6381;45.748;12.106;2023-03-23T08:47:28;15.60;93.70
12632;DHT22;6381;45.748;12.106;2023-03-23T08:50:26;15.70;93.80
12632;DHT22;6381;45.748;12.106;2023-03-23T08:53:01;15.70;93.80
12632;DHT22;6381;45.748;12.106;2023-03-23T08:55:35;15.90;92.80
12632;DHT22;6381;45.748;12.106;2023-03-23T08:58:22;15.90;93.40
12632;DHT22;6381;45.748;12.106;2023-03-23T09:01:16;16.10;92.10
12632;DHT22;6381;45.748;12.106;2023-03-23T09:03:58;16.40;92.80
12632;DHT22;6381;45.748;12.106;2023-03-23T09:06:49;16.30;92.90
12632;DHT22;6381;45.748;12.106;2023-03-23T09:09:18;16.10;92.70
12632;DHT22;6381;45.748;12.106;2023-03-23T09:11:47;16.10;92.60
12632;DHT22;6381;45.748;12.106;2023-03-23T09:14:15;16.00;92.90
12632;DHT22;6381;45.748;12.106;2023-03-23T09:16:44;16.00;93.00
12632;DHT22;6381;45.748;12.106;2023-03-23T09:19:13;16.00;93.50
12632;DHT22;6381;45.748;12.106;2023-03-23T09:21:42;16.10;93.00
12632;DHT22;6381;45.748;12.106;2023-03-23T09:24:13;16.10;93.30
12632;DHT22;6381;45.748;12.106;2023-03-23T09:26:42;16.20;93.00
12632;DHT22;6381;45.748;12.106;2023-03-23T09:29:10;16.40;92.70
12632;DHT22;6381;45.748;12.106;2023-03-23T09:31:39;16.50;92.30
12632;DHT22;6381;45.748;12.106;2023-03-23T09:34:09;16.70;92.30
12632;DHT22;6381;45.748;12.106;2023-03-23T09:36:38;17.10;91.50
12632;DHT22;6381;45.748;12.106;2023-03-23T09:39:07;17.40;91.90
12632;DHT22;6381;45.748;12.106;2023-03-23T09:42:03;17.90;91.40
12632;DHT22;6381;45.748;12.106;2023-03-23T09:44:42;18.30;90.60
12632;DHT22;6381;45.748;12.106;2023-03-23T09:47:17;18.30;89.10
12632;DHT22;6381;45.748;12.106;2023-03-23T09:49:53;17.80;86.20
12632;DHT22;6381;45.748;12.106;2023-03-23T09:52:33;17.60;87.40
12632;DHT22;6381;45.748;12.106;2023-03-23T09:55:05;17.40;87.60
12632;DHT22;6381;45.748;12.106;2023-03-23T09:57:40;17.50;87.50
12632;DHT22;6381;45.748;12.106;2023-03-23T10:00:12;17.50;82.20
12632;DHT22;6381;45.748;12.106;2023-03-23T10:02:49;17.50;82.50
12632;DHT22;6381;45.748;12.106;2023-03-23T10:05:30;17.70;85.10
12632;DHT22;6381;45.748;12.106;2023-03-23T10:08:01;17.90;84.40
12632;DHT22;6381;45.748;12.106;2023-03-23T10:10:38;18.20;81.80
12632;DHT22;6381;45.748;12.106;2023-03-23T10:13:17;18.40;80.70
12632;DHT22;6381;45.748;12.106;2023-03-23T10:15:48;18.50;79.20
12632;DHT22;6381;45.748;12.106;2023-03-23T10:18:23;18.70;80.50
12632;DHT22;6381;45.748;12.106;2023-03-23T10:20:56;18.80;78.70
12632;DHT22;6381;45.748;12.106;2023-03-23T10:23:54;19.20;77.30
12632;DHT22;6381;45.748;12.106;2023-03-23T10:26:38;19.40;70.50
12632;DHT22;6381;45.748;12.106;2023-03-23T10:29:17;19.90;75.00
12632;DHT22;6381;45.748;12.106;2023-03-23T10:31:52;20.00;67.90
12632;DHT22;6381;45.748;12.106;2023-03-23T10:34:27;19.80;63.40
12632;DHT22;6381;45.748;12.106;2023-03-23T10:37:02;19.50;63.70
12632;DHT22;6381;45.748;12.106;2023-03-23T10:39:41;19.30;63.50
12632;DHT22;6381;45.748;12.106;2023-03-23T10:42:20;19.80;61.90
12632;DHT22;6381;45.748;12.106;2023-03-23T10:44:51;20.20;68.30
12632;DHT22;6381;45.748;12.106;2023-03-23T10:47:20;20.50;66.20
12632;DHT22;6381;45.748;12.106;2023-03-23T10:49:50;20.20;62.60
12632;DHT22;6381;45.748;12.106;2023-03-23T10:52:29;20.10;62.30
12632;DHT22;6381;45.748;12.106;2023-03-23T10:55:03;20.00;59.60
12632;DHT22;6381;45.748;12.106;2023-03-23T10:57:34;19.80;59.20
12632;DHT22;6381;45.748;12.106;2023-03-23T11:00:14;20.00;58.40
12632;DHT22;6381;45.748;12.106;2023-03-23T11:02:47;20.60;61.60
12632;DHT22;6381;45.748;12.106;2023-03-23T11:05:19;20.80;59.10
12632;DHT22;6381;45.748;12.106;2023-03-23T11:07:51;20.90;54.50
12632;DHT22;6381;45.748;12.106;2023-03-23T11:10:24;20.40;52.60
12632;DHT22;6381;45.748;12.106;2023-03-23T11:12:56;20.20;53.30
12632;DHT22;6381;45.748;12.106;2023-03-23T11:15:34;19.70;53.80
12632;DHT22;6381;45.748;12.106;2023-03-23T11:18:05;19.50;54.80
12632;DHT22;6381;45.748;12.106;2023-03-23T11:20:36;19.80;54.00
12632;DHT22;6381;45.748;12.106;2023-03-23T11:23:15;19.70;52.90
12632;DHT22;6381;45.748;12.106;2023-03-23T11:25:56;20.00;52.70
12632;DHT22;6381;45.748;12.106;2023-03-23T11:28:29;20.40;53.70
12632;DHT22;6381;45.748;12.106;2023-03-23T11:31:02;21.60;54.10
12632;DHT22;6381;45.748;12.106;2023-03-23T11:33:37;21.90;54.10
12632;DHT22;6381;45.748;12.106;2023-03-23T11:36:08;21.70;50.60
12632;DHT22;6381;45.748;12.106;2023-03-23T11:38:37;21.70;49.80
12632;DHT22;6381;45.748;12.106;2023-03-23T11:41:10;20.90;50.00
12632;DHT22;6381;45.748;12.106;2023-03-23T11:43:43;20.50;50.10
12632;DHT22;6381;45.748;12.106;2023-03-23T11:46:22;20.80;51.20
12632;DHT22;6381;45.748;12.106;2023-03-23T11:48:57;20.70;50.90
12632;DHT22;6381;45.748;12.106;2023-03-23T11:51:33;21.20;49.00
12632;DHT22;6381;45.748;12.106;2023-03-23T11:54:11;21.20;47.00
12632;DHT22;6381;45.748;12.106;2023-03-23T11:56:44;20.40;49.50
12632;DHT22;6381;45.748;12.106;2023-03-23T11:59:15;20.90;49.60
12632;DHT22;6381;45.748;12.106;2023-03-23T12:01:53;20.90;49.50
12632;DHT22;6381;45.748;12.106;2023-03-23T12:07:46;21.10;51.40
12632;DHT22;6381;45.748;12.106;2023-03-23T12:10:25;21.20;51.80
12632;DHT22;6381;45.748;12.106;2023-03-23T12:13:02;21.30;51.80
12632;DHT22;6381;45.748;12.106;2023-03-23T12:15:41;21.90;52.70
12632;DHT22;6381;45.748;12.106;2023-03-23T12:18:21;21.80;49.70
12632;DHT22;6381;45.748;12.106;2023-03-23T12:21:00;21.10;49.60
12632;DHT22;6381;45.748;12.106;2023-03-23T12:23:40;21.00;49.70
12632;DHT22;6381;45.748;12.106;2023-03-23T12:26:20;21.10;50.70
12632;DHT22;6381;45.748;12.106;2023-03-23T12:29:17;21.20;50.50
12632;DHT22;6381;45.748;12.106;2023-03-23T12:32:02;22.20;50.40
12632;DHT22;6381;45.748;12.106;2023-03-23T12:34:40;22.50;47.60
12632;DHT22;6381;45.748;12.106;2023-03-23T12:37:25;22.40;47.10
12632;DHT22;6381;45.748;12.106;2023-03-23T12:40:19;22.40;47.90
12632;DHT22;6381;45.748;12.106;2023-03-23T12:42:54;23.30;46.70
12632;DHT22;6381;45.748;12.106;2023-03-23T12:46:00;23.10;45.80
12632;DHT22;6381;45.748;12.106;2023-03-23T12:48:34;22.20;46.50
12632;DHT22;6381;45.748;12.106;2023-03-23T12:51:14;21.90;46.60
12632;DHT22;6381;45.748;12.106;2023-03-23T12:53:50;21.70;47.30
12632;DHT22;6381;45.748;12.106;2023-03-23T12:56:23;21.60;46.80
12632;DHT22;6381;45.748;12.106;2023-03-23T12:58:58;21.60;47.30
12632;DHT22;6381;45.748;12.106;2023-03-23T13:01:31;21.80;47.10
12632;DHT22;6381;45.748;12.106;2023-03-23T13:04:05;21.30;46.50
12632;DHT22;6381;45.748;12.106;2023-03-23T13:06:38;21.20;47.80
12632;DHT22;6381;45.748;12.106;2023-03-23T13:09:13;21.20;47.10
12632;DHT22;6381;45.748;12.106;2023-03-23T13:11:44;21.40;47.90
12632;DHT22;6381;45.748;12.106;2023-03-23T13:14:21;21.70;46.70
12632;DHT22;6381;45.748;12.106;2023-03-23T13:16:58;22.30;45.20
12632;DHT22;6381;45.748;12.106;2023-03-23T13:22:22;22.20;45.20
12632;DHT22;6381;45.748;12.106;2023-03-23T13:24:55;22.50;44.90
12632;DHT22;6381;45.748;12.106;2023-03-23T13:27:24;24.00;44.90
12632;DHT22;6381;45.748;12.106;2023-03-23T13:29:55;23.90;46.90
12632;DHT22;6381;45.748;12.106;2023-03-23T13:32:33;24.80;45.40
12632;DHT22;6381;45.748;12.106;2023-03-23T13:35:03;24.30;42.00
12632;DHT22;6381;45.748;12.106;2023-03-23T13:37:35;24.10;42.70
12632;DHT22;6381;45.748;12.106;2023-03-23T13:40:21;23.50;44.50
12632;DHT22;6381;45.748;12.106;2023-03-23T13:42:54;24.30;43.80
12632;DHT22;6381;45.748;12.106;2023-03-23T13:45:35;24.40;43.60
12632;DHT22;6381;45.748;12.106;2023-03-23T13:48:18;24.60;43.30
12632;DHT22;6381;45.748;12.106;2023-03-23T13:50:51;24.40;41.20
12632;DHT22;6381;45.748;12.106;2023-03-23T13:53:27;24.70;42.50
12632;DHT22;6381;45.748;12.106;2023-03-23T13:56:17;23.50;41.20
12632;DHT22;6381;45.748;12.106;2023-03-23T13:58:48;24.00;42.50
12632;DHT22;6381;45.748;12.106;2023-03-23T14:01:19;25.40;41.10
12632;DHT22;6381;45.748;12.106;2023-03-23T14:04:00;25.40;40.30
12632;DHT22;6381;45.748;12.106;2023-03-23T14:06:34;25.10;38.80
12632;DHT22;6381;45.748;12.106;2023-03-23T14:09:17;24.40;40.40
12632;DHT22;6381;45.748;12.106;2023-03-23T14:11:49;24.80;39.80
12632;DHT22;6381;45.748;12.106;2023-03-23T14:14:24;25.50;39.90
12632;DHT22;6381;45.748;12.106;2023-03-23T14:17:06;25.70;40.50
12632;DHT22;6381;45.748;12.106;2023-03-23T14:19:38;26.00;40.00
12632;DHT22;6381;45.748;12.106;2023-03-23T14:22:18;24.80;39.10
12632;DHT22;6381;45.748;12.106;2023-03-23T14:24:49;24.70;40.10
12632;DHT22;6381;45.748;12.106;2023-03-23T14:27:22;24.50;40.30
12632;DHT22;6381;45.748;12.106;2023-03-23T14:29:58;24.80;40.70
12632;DHT22;6381;45.748;12.106;2023-03-23T14:32:29;23.70;40.50
12632;DHT22;6381;45.748;12.106;2023-03-23T14:35:05;23.00;42.20
12632;DHT22;6381;45.748;12.106;2023-03-23T14:37:37;23.70;42.50
12632;DHT22;6381;45.748;12.106;2023-03-23T14:40:12;24.50;41.80
12632;DHT22;6381;45.748;12.106;2023-03-23T14:42:42;25.10;40.60
12632;DHT22;6381;45.748;12.106;2023-03-23T14:45:14;25.30;41.40
12632;DHT22;6381;45.748;12.106;2023-03-23T14:47:44;25.00;41.70
12632;DHT22;6381;45.748;12.106;2023-03-23T14:50:26;25.90;40.30
12632;DHT22;6381;45.748;12.106;2023-03-23T14:53:07;25.50;40.40
12632;DHT22;6381;45.748;12.106;2023-03-23T14:55:46;25.40;40.30
12632;DHT22;6381;45.748;12.106;2023-03-23T14:58:17;25.30;40.10
12632;DHT22;6381;45.748;12.106;2023-03-23T15:00:52;25.70;40.80
12632;DHT22;6381;45.748;12.106;2023-03-23T15:03:22;25.60;39.40
12632;DHT22;6381;45.748;12.106;2023-03-23T15:05:54;25.70;39.00
12632;DHT22;6381;45.748;12.106;2023-03-23T15:08:25;25.60;38.30
12632;DHT22;6381;45.748;12.106;2023-03-23T15:11:05;25.10;38.60
12632;DHT22;6381;45.748;12.106;2023-03-23T15:13:35;25.10;38.60
12632;DHT22;6381;45.748;12.106;2023-03-23T15:16:11;24.70;39.30
12632;DHT22;6381;45.748;12.106;2023-03-23T15:18:49;24.40;40.40
12632;DHT22;6381;45.748;12.106;2023-03-23T15:21:24;24.40;40.00
12632;DHT22;6381;45.748;12.106;2023-03-23T15:23:53;24.20;40.40
12632;DHT22;6381;45.748;12.106;2023-03-23T15:26:31;24.50;39.90
12632;DHT22;6381;45.748;12.106;2023-03-23T15:29:16;24.50;40.40
12632;DHT22;6381;45.748;12.106;2023-03-23T15:31:47;24.50;40.00
12632;DHT22;6381;45.748;12.106;2023-03-23T15:34:20;24.50;39.40
12632;DHT22;6381;45.748;12.106;2023-03-23T15:36:56;24.30;40.70
12632;DHT22;6381;45.748;12.106;2023-03-23T15:39:27;24.20;41.10
12632;DHT22;6381;45.748;12.106;2023-03-23T15:41:58;24.30;41.60
12632;DHT22;6381;45.748;12.106;2023-03-23T15:44:32;24.90;41.60
12632;DHT22;6381;45.748;12.106;2023-03-23T15:47:12;25.00;40.50
12632;DHT22;6381;45.748;12.106;2023-03-23T15:49:43;24.90;40.10
12632;DHT22;6381;45.748;12.106;2023-03-23T15:52:13;24.40;40.40
12632;DHT22;6381;45.748;12.106;2023-03-23T15:54:48;24.50;40.80
12632;DHT22;6381;45.748;12.106;2023-03-23T15:57:19;23.80;40.70
12632;DHT22;6381;45.748;12.106;2023-03-23T15:59:47;23.70;40.90
12632;DHT22;6381;45.748;12.106;2023-03-23T16:02:21;23.30;41.60
12632;DHT22;6381;45.748;12.106;2023-03-23T16:04:54;23.70;41.50
12632;DHT22;6381;45.748;12.106;2023-03-23T16:07:24;23.80;40.60
12632;DHT22;6381;45.748;12.106;2023-03-23T16:09:54;23.20;41.10
12632;DHT22;6381;45.748;12.106;2023-03-23T16:12:27;22.90;41.80
12632;DHT22;6381;45.748;12.106;2023-03-23T16:14:57;22.70;42.20
12632;DHT22;6381;45.748;12.106;2023-03-23T16:17:27;22.70;41.90
12632;DHT22;6381;45.748;12.106;2023-03-23T16:19:57;22.40;42.50
12632;DHT22;6381;45.748;12.106;2023-03-23T16:22:27;22.10;43.00
12632;DHT22;6381;45.748;12.106;2023-03-23T16:24:58;22.30;43.40
12632;DHT22;6381;45.748;12.106;2023-03-23T16:27:31;21.80;43.60
12632;DHT22;6381;45.748;12.106;2023-03-23T16:30:01;21.90;44.10
12632;DHT22;6381;45.748;12.106;2023-03-23T16:32:32;21.80;44.50
12632;DHT22;6381;45.748;12.106;2023-03-23T16:35:00;21.70;45.20
12632;DHT22;6381;45.748;12.106;2023-03-23T16:37:31;21.70;45.30
12632;DHT22;6381;45.748;12.106;2023-03-23T16:40:04;21.50;45.50
12632;DHT22;6381;45.748;12.106;2023-03-23T16:42:38;21.30;46.60
12632;DHT22;6381;45.748;12.106;2023-03-23T16:45:09;21.10;47.40
12632;DHT22;6381;45.748;12.106;2023-03-23T16:47:44;20.80;47.60
12632;DHT22;6381;45.748;12.106;2023-03-23T16:50:15;20.80;47.70
12632;DHT22;6381;45.748;12.106;2023-03-23T16:52:46;20.50;48.40
12632;DHT22;6381;45.748;12.106;2023-03-23T16:55:17;20.00;49.30
12632;DHT22;6381;45.748;12.106;2023-03-23T16:57:50;19.90;49.40